Time;durP1;ratioP1;P1;durP2;ratioP2;P2;SDS_P1;SDS_P2;PMS_P1;PMS_P2;Temp;Humidity;BMP_temperature;BMP_pressure;BME280_temperature;BME280_humidity;BME280_pressure;Samples;Min_cycle;Max_cycle;Signal;HPM_P1;HPM_P2
2022/02/17 00:00:06;;;;;;;0.28;0.28;;;;;;;;;;1813304;78;26330;-43
2022/02/17 00:02:34;;;;;;;0.68;0.30;;;;;;;;;;1797075;78;26338;-46
2022/02/17 00:05:01;;;;;;;0.30;0.30;;;;;;;;;;1813058;79;26777;-46
2022/02/17 00:07:28;;;;;;;0.35;0.30;;;;;;;;;;1806247;78;26290;-42
2022/02/17 00:09:56;;;;;;;0.20;0.20;;;;;;;;;;1797669;78;26247;-42
2022/02/17 00:12:23;;;;;;;0.30;0.30;;;;;;;;;;1805160;78;26367;-44
2022/02/17 00:14:50;;;;;;;0.30;0.30;;;;;;;;;;1813066;79;26327;-44
2022/02/17 00:17:18;;;;;;;0.20;0.20;;;;;;;;;;1813142;78;26297;-45
2022/02/17 00:19:45;;;;;;;0.15;0.15;;;;;;;;;;1812507;78;26736;-46
2022/02/17 00:22:12;;;;;;;0.20;0.20;;;;;;;;;;1805691;79;26281;-45
2022/02/17 00:24:40;;;;;;;0.20;0.20;;;;;;;;;;1787047;79;26314;-45
2022/02/17 00:27:08;;;;;;;0.70;0.30;;;;;;;;;;1796945;78;26268;-45
2022/02/17 00:29:35;;;;;;;0.10;0.10;;;;;;;;;;1813218;79;26391;-44
2022/02/17 00:32:02;;;;;;;0.20;0.20;;;;;;;;;;1812743;78;26664;-43
2022/02/17 00:34:30;;;;;;;0.85;0.20;;;;;;;;;;1812751;78;26326;-45
2022/02/17 00:36:57;;;;;;;0.98;0.20;;;;;;;;;;1789711;79;26686;-44
2022/02/17 00:39:24;;;;;;;0.25;0.10;;;;;;;;;;1811223;78;26357;-45
2022/02/17 00:41:52;;;;;;;0.15;0.15;;;;;;;;;;1812773;79;26330;-44
2022/02/17 00:44:19;;;;;;;0.17;0.17;;;;;;;;;;1812000;78;26356;-45
2022/02/17 00:46:48;;;;;;;4.78;0.30;;;;;;;;;;1813374;79;26318;-44
2022/02/17 00:49:16;;;;;;;1.75;0.15;;;;;;;;;;1812826;78;26306;-43
2022/02/17 00:51:44;;;;;;;0.20;0.20;;;;;;;;;;1813191;78;26791;-49
2022/02/17 00:54:11;;;;;;;2.20;0.17;;;;;;;;;;1796062;79;26274;-43
2022/02/17 00:56:39;;;;;;;0.20;0.20;;;;;;;;;;1806507;78;26425;-46
2022/02/17 00:59:06;;;;;;;2.80;0.20;;;;;;;;;;1812522;78;26708;-46
2022/02/17 01:01:33;;;;;;;0.20;0.20;;;;;;;;;;1808971;79;26655;-46
2022/02/17 01:04:00;;;;;;;0.10;0.10;;;;;;;;;;1809443;78;26302;-46
2022/02/17 01:06:28;;;;;;;0.20;0.20;;;;;;;;;;1805879;78;26799;-46
2022/02/17 01:08:55;;;;;;;0.30;0.10;;;;;;;;;;1811796;79;26836;-45
2022/02/17 01:11:22;;;;;;;0.17;0.17;;;;;;;;;;1817732;78;26206;-46
2022/02/17 01:13:50;;;;;;;0.35;0.20;;;;;;;;;;1812402;78;26397;-45
2022/02/17 01:16:17;;;;;;;0.40;0.23;;;;;;;;;;1812510;78;26860;-46
2022/02/17 01:18:44;;;;;;;0.37;0.13;;;;;;;;;;1782457;78;26384;-46
2022/02/17 01:21:12;;;;;;;1.00;0.15;;;;;;;;;;1797315;78;26384;-43
2022/02/17 01:23:39;;;;;;;0.33;0.20;;;;;;;;;;1810454;78;26291;-46
2022/02/17 01:26:06;;;;;;;0.23;0.20;;;;;;;;;;1807724;79;26340;-49
2022/02/17 01:28:36;;;;;;;0.40;0.20;;;;;;;;;;1806392;78;26292;-46
2022/02/17 01:31:03;;;;;;;0.10;0.10;;;;;;;;;;1809932;78;25410;-42
2022/02/17 01:33:30;;;;;;;1.70;0.13;;;;;;;;;;1793806;79;26317;-45
2022/02/17 01:35:57;;;;;;;2.10;0.23;;;;;;;;;;1803928;78;28380;-46
2022/02/17 01:38:24;;;;;;;2.08;0.30;;;;;;;;;;1808222;78;26326;-47
2022/02/17 01:40:52;;;;;;;1.45;0.33;;;;;;;;;;1809228;78;26343;-42
2022/02/17 01:43:19;;;;;;;2.83;0.20;;;;;;;;;;1808792;78;26388;-43
2022/02/17 01:45:46;;;;;;;0.62;0.30;;;;;;;;;;1812253;78;26710;-43
2022/02/17 01:48:14;;;;;;;1.55;0.10;;;;;;;;;;1812182;78;26771;-42
2022/02/17 01:50:41;;;;;;;0.65;0.10;;;;;;;;;;1810408;79;26770;-41
2022/02/17 01:53:09;;;;;;;0.10;0.10;;;;;;;;;;1807649;78;26301;-43
2022/02/17 01:55:38;;;;;;;1.92;0.30;;;;;;;;;;1810106;78;26259;-41
2022/02/17 01:58:05;;;;;;;0.10;0.10;;;;;;;;;;1809776;79;26318;-43
2022/02/17 02:00:33;;;;;;;0.10;0.10;;;;;;;;;;1811209;78;26334;-44
2022/02/17 02:03:00;;;;;;;0.68;0.30;;;;;;;;;;1812066;78;26267;-42
2022/02/17 02:05:28;;;;;;;0.70;0.00;;;;;;;;;;1808572;79;26292;-42
2022/02/17 02:07:55;;;;;;;0.15;0.15;;;;;;;;;;1807748;78;26796;-46
2022/02/17 02:10:22;;;;;;;0.10;0.10;;;;;;;;;;1809589;78;26832;-42
2022/02/17 02:12:49;;;;;;;0.78;0.20;;;;;;;;;;1794046;78;26824;-42
2022/02/17 02:15:17;;;;;;;0.55;0.15;;;;;;;;;;1810906;79;26775;-43
2022/02/17 02:17:44;;;;;;;0.17;0.17;;;;;;;;;;1803678;78;26395;-41
2022/02/17 02:20:18;;;;;;;0.10;0.10;;;;;;;;;;1812748;79;26364;-42
2022/02/17 02:22:46;;;;;;;0.47;0.20;;;;;;;;;;1802480;79;26291;-43
2022/02/17 02:25:14;;;;;;;0.20;0.20;;;;;;;;;;1802184;79;26857;-43
2022/02/17 02:27:41;;;;;;;0.20;0.20;;;;;;;;;;1784318;79;26667;-41
2022/02/17 02:30:09;;;;;;;0.45;0.28;;;;;;;;;;1812216;79;26742;-44
2022/02/17 02:32:37;;;;;;;0.23;0.23;;;;;;;;;;1803200;79;26753;-41
2022/02/17 02:35:04;;;;;;;0.75;0.10;;;;;;;;;;1788648;79;26791;-44
2022/02/17 02:37:31;;;;;;;0.17;0.10;;;;;;;;;;1791306;79;26227;-43
2022/02/17 02:39:58;;;;;;;0.00;0.00;;;;;;;;;;1812872;79;26298;-42
2022/02/17 02:42:26;;;;;;;0.10;0.10;;;;;;;;;;1807977;79;26539;-42
2022/02/17 02:44:53;;;;;;;0.10;0.10;;;;;;;;;;1781959;80;26266;-42
2022/02/17 02:47:20;;;;;;;0.10;0.10;;;;;;;;;;1786603;79;26731;-42
2022/02/17 02:49:48;;;;;;;1.17;0.10;;;;;;;;;;1794403;79;26306;-42
2022/02/17 02:52:15;;;;;;;0.20;0.05;;;;;;;;;;1811732;79;26291;-42
2022/02/17 02:54:42;;;;;;;0.23;0.23;;;;;;;;;;1806878;79;26293;-42
2022/02/17 02:57:09;;;;;;;0.30;0.30;;;;;;;;;;1796155;79;26259;-42
2022/02/17 02:59:41;;;;;;;0.57;0.13;;;;;;;;;;1801355;79;26220;-44
2022/02/17 03:02:06;;;;;;;0.42;0.10;;;;;;;;;;1797505;79;26412;-44
2022/02/17 03:04:33;;;;;;;0.15;0.15;;;;;;;;;;1797345;79;26248;-42
2022/02/17 03:07:00;;;;;;;0.68;0.15;;;;;;;;;;1806129;79;26235;-42
2022/02/17 03:09:27;;;;;;;0.10;0.10;;;;;;;;;;1801551;79;26816;-42
2022/02/17 03:11:55;;;;;;;0.20;0.20;;;;;;;;;;1811811;79;26744;-42
2022/02/17 03:14:22;;;;;;;0.10;0.10;;;;;;;;;;1801374;79;27189;-43
2022/02/17 03:16:49;;;;;;;0.20;0.20;;;;;;;;;;1798321;79;26271;-42
2022/02/17 03:19:17;;;;;;;0.10;0.10;;;;;;;;;;1773436;79;26219;-43
2022/02/17 03:21:44;;;;;;;0.13;0.13;;;;;;;;;;1785895;78;26285;-41
2022/02/17 03:24:11;;;;;;;0.08;0.08;;;;;;;;;;1800619;79;26306;-42
2022/02/17 03:26:39;;;;;;;0.20;0.20;;;;;;;;;;1795710;79;26302;-43
2022/02/17 03:29:06;;;;;;;0.03;0.03;;;;;;;;;;1790196;79;26663;-42
2022/02/17 03:31:33;;;;;;;0.20;0.20;;;;;;;;;;1803492;79;26335;-44
2022/02/17 03:34:01;;;;;;;0.28;0.20;;;;;;;;;;1777142;79;26294;-41
2022/02/17 03:36:28;;;;;;;0.10;0.10;;;;;;;;;;1779627;79;26746;-43
2022/02/17 03:38:57;;;;;;;0.20;0.17;;;;;;;;;;1783930;79;27386;-43
2022/02/17 03:41:24;;;;;;;0.08;0.08;;;;;;;;;;1796751;79;26326;-46
2022/02/17 03:43:51;;;;;;;0.10;0.08;;;;;;;;;;1791199;79;26282;-44
2022/02/17 03:46:19;;;;;;;0.10;0.10;;;;;;;;;;1802241;79;26401;-43
2022/02/17 03:48:46;;;;;;;0.20;0.20;;;;;;;;;;1802597;79;26841;-42
2022/02/17 03:51:13;;;;;;;0.13;0.13;;;;;;;;;;1780704;79;26316;-43
2022/02/17 03:53:41;;;;;;;0.10;0.10;;;;;;;;;;1785745;79;26404;-43
2022/02/17 03:56:08;;;;;;;0.60;0.10;;;;;;;;;;1802457;79;26302;-43
2022/02/17 04:01:20;;;;;;;0.75;0.20;;;;;;;;;;1794306;79;26353;-43
2022/02/17 04:03:48;;;;;;;0.23;0.23;;;;;;;;;;1786623;79;26659;-43
2022/02/17 04:06:15;;;;;;;0.10;0.10;;;;;;;;;;1793606;78;26793;-42
2022/02/17 04:08:42;;;;;;;0.17;0.17;;;;;;;;;;1794616;79;26392;-43
2022/02/17 04:11:09;;;;;;;0.53;0.10;;;;;;;;;;1787390;79;26232;-41
2022/02/17 04:13:37;;;;;;;0.10;0.10;;;;;;;;;;1787616;79;26246;-42
2022/02/17 04:16:05;;;;;;;0.13;0.13;;;;;;;;;;1789425;79;26687;-43
2022/02/17 04:18:32;;;;;;;0.10;0.10;;;;;;;;;;1808898;79;26542;-42
2022/02/17 04:20:59;;;;;;;0.20;0.20;;;;;;;;;;1812641;79;26691;-42
2022/02/17 04:23:26;;;;;;;0.20;0.20;;;;;;;;;;1803720;79;26663;-43
2022/02/17 04:25:54;;;;;;;0.10;0.10;;;;;;;;;;1811418;79;26327;-42
2022/02/17 04:28:21;;;;;;;0.13;0.13;;;;;;;;;;1806881;79;26384;-43
2022/02/17 04:30:48;;;;;;;0.08;0.08;;;;;;;;;;1811798;79;26294;-42
2022/02/17 04:33:16;;;;;;;0.33;0.20;;;;;;;;;;1807366;79;26341;-42
2022/02/17 04:35:43;;;;;;;0.72;0.20;;;;;;;;;;1812785;79;26313;-42
2022/02/17 04:38:10;;;;;;;0.10;0.10;;;;;;;;;;1812756;79;26736;-43
2022/02/17 04:43:23;;;;;;;0.20;0.20;;;;;;;;;;1812008;79;26401;-43
2022/02/17 04:45:50;;;;;;;0.10;0.10;;;;;;;;;;1812879;79;26302;-45
2022/02/17 04:48:18;;;;;;;0.10;0.10;;;;;;;;;;1798643;79;26251;-43
2022/02/17 04:50:45;;;;;;;0.05;0.05;;;;;;;;;;1812372;79;26314;-43
2022/02/17 04:53:12;;;;;;;0.10;0.10;;;;;;;;;;1812677;79;26274;-43
2022/02/17 04:55:39;;;;;;;0.10;0.10;;;;;;;;;;1800354;79;26310;-46
2022/02/17 04:58:07;;;;;;;0.30;0.30;;;;;;;;;;1807449;79;26816;-43
2022/02/17 05:00:34;;;;;;;0.20;0.20;;;;;;;;;;1793579;79;27452;-42
2022/02/17 05:03:01;;;;;;;0.00;0.00;;;;;;;;;;1812374;79;26683;-42
2022/02/17 05:05:29;;;;;;;0.17;0.17;;;;;;;;;;1812373;79;26659;-43
2022/02/17 05:07:57;;;;;;;0.42;0.20;;;;;;;;;;1803541;79;26270;-42
2022/02/17 05:10:24;;;;;;;0.98;0.10;;;;;;;;;;1807168;79;25818;-43
2022/02/17 05:12:51;;;;;;;0.10;0.10;;;;;;;;;;1802333;79;26684;-43
2022/02/17 05:15:18;;;;;;;0.17;0.17;;;;;;;;;;1807279;79;26668;-44
2022/02/17 05:17:46;;;;;;;0.10;0.10;;;;;;;;;;1767241;79;27714;-44
2022/02/17 05:20:14;;;;;;;0.20;0.20;;;;;;;;;;1803478;79;26301;-43
2022/02/17 05:22:42;;;;;;;0.10;0.10;;;;;;;;;;1796767;79;26709;-43
2022/02/17 05:25:10;;;;;;;0.85;0.20;;;;;;;;;;1796853;79;26295;-42
2022/02/17 05:27:38;;;;;;;0.10;0.10;;;;;;;;;;1803339;79;26890;-43
2022/02/17 05:30:06;;;;;;;0.10;0.10;;;;;;;;;;1786269;79;26932;-43
2022/02/17 05:32:35;;;;;;;1.35;0.10;;;;;;;;;;1798570;79;26365;-43
2022/02/17 05:35:02;;;;;;;0.20;0.20;;;;;;;;;;1799098;79;26275;-43
2022/02/17 05:37:30;;;;;;;0.88;0.30;;;;;;;;;;1798559;79;26364;-43
2022/02/17 05:39:57;;;;;;;0.40;0.30;;;;;;;;;;1802102;79;26389;-41
2022/02/17 05:42:24;;;;;;;0.40;0.40;;;;;;;;;;1798254;79;26739;-42
2022/02/17 05:44:51;;;;;;;0.55;0.55;;;;;;;;;;1800099;79;26715;-43
2022/02/17 05:47:19;;;;;;;0.40;0.40;;;;;;;;;;1803161;79;26872;-43
2022/02/17 05:49:46;;;;;;;0.47;0.40;;;;;;;;;;1802919;79;26672;-42
2022/02/17 05:52:13;;;;;;;1.65;0.40;;;;;;;;;;1803036;79;26267;-44
2022/02/17 05:54:41;;;;;;;1.00;0.40;;;;;;;;;;1803071;79;26287;-42
2022/02/17 05:57:08;;;;;;;0.93;0.50;;;;;;;;;;1801541;79;25916;-44
2022/02/17 05:59:38;;;;;;;2.42;0.80;;;;;;;;;;1784690;79;26238;-42
2022/02/17 06:02:05;;;;;;;0.50;0.50;;;;;;;;;;1802613;79;26362;-43
2022/02/17 06:04:33;;;;;;;0.68;0.53;;;;;;;;;;1801443;79;26365;-43
2022/02/17 06:07:00;;;;;;;0.35;0.35;;;;;;;;;;1799005;79;26307;-42
2022/02/17 06:09:27;;;;;;;0.40;0.40;;;;;;;;;;1812746;79;26365;-43
2022/02/17 06:11:54;;;;;;;0.60;0.50;;;;;;;;;;1812641;79;26368;-43
2022/02/17 06:14:22;;;;;;;0.55;0.47;;;;;;;;;;1813545;79;26267;-42
2022/02/17 06:16:49;;;;;;;0.75;0.57;;;;;;;;;;1817127;78;26437;-42
2022/02/17 06:19:16;;;;;;;0.75;0.70;;;;;;;;;;1823612;78;26298;-41
2022/02/17 06:21:44;;;;;;;0.50;0.40;;;;;;;;;;1823467;78;26876;-41
2022/02/17 06:24:11;;;;;;;0.93;0.50;;;;;;;;;;1822088;78;26336;-41
2022/02/17 06:26:38;;;;;;;0.60;0.60;;;;;;;;;;1820423;78;26666;-42
2022/02/17 06:29:05;;;;;;;0.57;0.57;;;;;;;;;;1823417;78;26281;-43
2022/02/17 06:31:33;;;;;;;0.60;0.50;;;;;;;;;;1823395;78;26352;-43
2022/02/17 06:34:00;;;;;;;0.42;0.42;;;;;;;;;;1821132;78;26348;-42
2022/02/17 06:36:27;;;;;;;0.50;0.40;;;;;;;;;;1823672;78;26294;-43
2022/02/17 06:38:54;;;;;;;0.45;0.45;;;;;;;;;;1823854;78;26368;-43
2022/02/17 06:41:22;;;;;;;0.40;0.30;;;;;;;;;;1819677;78;26397;-42
2022/02/17 06:43:50;;;;;;;0.50;0.50;;;;;;;;;;1832607;78;26636;-42
2022/02/17 06:46:17;;;;;;;1.22;0.55;;;;;;;;;;1825277;78;26269;-42
2022/02/17 06:48:44;;;;;;;0.50;0.50;;;;;;;;;;1835440;78;26299;-42
2022/02/17 06:51:12;;;;;;;0.70;0.50;;;;;;;;;;1823028;78;26729;-41
2022/02/17 06:53:40;;;;;;;0.53;0.40;;;;;;;;;;1825474;78;26334;-43
2022/02/17 06:56:08;;;;;;;2.00;0.40;;;;;;;;;;1824022;78;26754;-41
2022/02/17 06:58:35;;;;;;;2.65;0.50;;;;;;;;;;1823879;78;26262;-42
2022/02/17 07:01:02;;;;;;;2.20;0.70;;;;;;;;;;1820743;78;26297;-43
2022/02/17 07:03:30;;;;;;;12.98;0.70;;;;;;;;;;1820684;78;26383;-42
2022/02/17 07:05:57;;;;;;;3.45;0.60;;;;;;;;;;1820826;78;26289;-42
2022/02/17 07:08:24;;;;;;;4.85;0.62;;;;;;;;;;1829725;78;26204;-41
2022/02/17 07:10:54;;;;;;;2.25;0.80;;;;;;;;;;1830319;78;26380;-41
2022/02/17 07:13:23;;;;;;;2.05;0.60;;;;;;;;;;1795003;78;26371;-41
2022/02/17 07:15:51;;;;;;;6.50;0.70;;;;;;;;;;1813119;78;26361;-42
2022/02/17 07:18:19;;;;;;;2.67;0.60;;;;;;;;;;1828539;78;26327;-41
2022/02/17 07:20:48;;;;;;;1.22;0.57;;;;;;;;;;1826255;78;26738;-41
2022/02/17 07:23:16;;;;;;;0.90;0.60;;;;;;;;;;1828112;78;26713;-42
2022/02/17 07:25:44;;;;;;;1.20;0.70;;;;;;;;;;1828478;78;26299;-42
2022/02/17 07:28:12;;;;;;;1.10;0.50;;;;;;;;;;1828680;78;26829;-42
2022/02/17 07:30:41;;;;;;;0.75;0.57;;;;;;;;;;1828917;77;26305;-43
2022/02/17 07:33:09;;;;;;;0.65;0.40;;;;;;;;;;1832368;77;26244;-42
2022/02/17 07:35:36;;;;;;;1.10;0.50;;;;;;;;;;1838092;77;26659;-43
2022/02/17 07:38:04;;;;;;;0.50;0.50;;;;;;;;;;1828532;78;26285;-43
2022/02/17 07:40:31;;;;;;;0.40;0.40;;;;;;;;;;1829623;77;26281;-42
2022/02/17 07:42:58;;;;;;;0.40;0.40;;;;;;;;;;1829445;77;26317;-43
2022/02/17 07:45:26;;;;;;;3.20;0.40;;;;;;;;;;1826070;77;26803;-43
2022/02/17 07:47:54;;;;;;;1.55;0.45;;;;;;;;;;1829851;78;26270;-42
2022/02/17 07:50:27;;;;;;;1.80;0.60;;;;;;;;;;1809828;78;26329;-45
2022/02/17 07:52:53;;;;;;;30.82;0.85;;;;;;;;;;1834073;77;26321;-42
2022/02/17 07:55:21;;;;;;;0.55;0.55;;;;;;;;;;1824523;78;26351;-42
2022/02/17 07:57:49;;;;;;;0.95;0.50;;;;;;;;;;1816891;78;26309;-42
2022/02/17 08:00:16;;;;;;;0.40;0.40;;;;;;;;;;1828850;78;26290;-43
2022/02/17 08:02:44;;;;;;;1.37;0.60;;;;;;;;;;1829589;78;26328;-42
2022/02/17 08:05:12;;;;;;;1.07;0.45;;;;;;;;;;1827693;78;26258;-42
2022/02/17 08:07:40;;;;;;;2.83;0.40;;;;;;;;;;1824668;78;26298;-41
2022/02/17 08:10:08;;;;;;;0.53;0.42;;;;;;;;;;1822373;78;26367;-42
2022/02/17 08:12:44;;;;;;;1.10;0.55;;;;;;;;;;1826863;77;25683;-43
2022/02/17 08:15:12;;;;;;;0.30;0.30;;;;;;;;;;1829612;78;26326;-55
2022/02/17 08:17:40;;;;;;;2.27;0.40;;;;;;;;;;1827390;77;26584;-43
2022/02/17 08:20:10;;;;;;;1.12;0.35;;;;;;;;;;1829075;78;26800;-41
2022/02/17 08:22:37;;;;;;;2.25;0.50;;;;;;;;;;1827594;78;26313;-43
2022/02/17 08:25:05;;;;;;;0.30;0.30;;;;;;;;;;1829714;78;26696;-41
2022/02/17 08:27:34;;;;;;;0.23;0.23;;;;;;;;;;1820229;77;26227;-42
2022/02/17 08:30:01;;;;;;;0.35;0.33;;;;;;;;;;1829876;77;26309;-53
2022/02/17 08:32:30;;;;;;;2.05;0.55;;;;;;;;;;1828927;78;26302;-52
2022/02/17 08:34:57;;;;;;;0.20;0.20;;;;;;;;;;1828359;78;26351;-48
2022/02/17 08:37:25;;;;;;;0.42;0.30;;;;;;;;;;1829171;78;26289;-47
2022/02/17 08:39:52;;;;;;;1.45;0.30;;;;;;;;;;1829328;77;26301;-48
2022/02/17 08:42:19;;;;;;;0.30;0.30;;;;;;;;;;1829387;78;26360;-49
2022/02/17 08:44:47;;;;;;;0.40;0.30;;;;;;;;;;1826686;78;26262;-47
2022/02/17 08:47:17;;;;;;;0.30;0.30;;;;;;;;;;1829825;78;26299;-49
2022/02/17 08:49:44;;;;;;;0.42;0.37;;;;;;;;;;1829142;78;26283;-48
2022/02/17 08:52:11;;;;;;;0.28;0.28;;;;;;;;;;1829161;78;26745;-48
2022/02/17 08:54:38;;;;;;;1.90;0.40;;;;;;;;;;1829613;78;27279;-47
2022/02/17 08:57:05;;;;;;;0.30;0.30;;;;;;;;;;1816401;78;26261;-45
2022/02/17 08:59:33;;;;;;;0.35;0.35;;;;;;;;;;1799780;80;26673;-46
2022/02/17 09:02:00;;;;;;;1.17;0.40;;;;;;;;;;1800443;78;26814;-46
2022/02/17 09:04:28;;;;;;;0.53;0.40;;;;;;;;;;1800936;78;26281;-48
2022/02/17 09:06:56;;;;;;;2.17;0.50;;;;;;;;;;1828072;77;27048;-44
2022/02/17 09:09:23;;;;;;;0.50;0.30;;;;;;;;;;1827888;78;26742;-47
2022/02/17 09:11:50;;;;;;;0.30;0.30;;;;;;;;;;1831761;77;26387;-45
2022/02/17 09:14:18;;;;;;;0.20;0.20;;;;;;;;;;1817025;78;26727;-44
2022/02/17 09:16:45;;;;;;;0.62;0.13;;;;;;;;;;1835411;77;26268;-46
2022/02/17 09:19:13;;;;;;;0.82;0.30;;;;;;;;;;1812593;78;26428;-46
2022/02/17 09:21:41;;;;;;;1.35;0.30;;;;;;;;;;1801487;78;26327;-42
2022/02/17 09:24:08;;;;;;;1.35;0.20;;;;;;;;;;1806066;79;26388;-45
2022/02/17 09:26:36;;;;;;;0.23;0.23;;;;;;;;;;1808702;78;26632;-47
2022/02/17 09:29:04;;;;;;;0.25;0.25;;;;;;;;;;1805892;79;26703;-49
2022/02/17 09:31:31;;;;;;;0.70;0.20;;;;;;;;;;1806825;78;26408;-45
2022/02/17 09:33:59;;;;;;;2.87;0.40;;;;;;;;;;1803875;78;26734;-45
2022/02/17 09:36:26;;;;;;;0.20;0.20;;;;;;;;;;1801317;78;26373;-45
2022/02/17 09:38:55;;;;;;;0.20;0.20;;;;;;;;;;1802537;79;26411;-45
2022/02/17 09:41:23;;;;;;;0.10;0.10;;;;;;;;;;1807874;78;26299;-43
2022/02/17 09:43:51;;;;;;;0.20;0.20;;;;;;;;;;1805278;79;27339;-44
2022/02/17 09:46:24;;;;;;;0.25;0.25;;;;;;;;;;1803982;79;26695;-44
2022/02/17 09:49:01;;;;;;;2.42;0.20;;;;;;;;;;1799441;79;26271;-45
2022/02/17 09:51:31;;;;;;;1.15;0.20;;;;;;;;;;1800823;78;26848;-44
2022/02/17 09:53:59;;;;;;;0.30;0.30;;;;;;;;;;1806758;78;27410;-44
2022/02/17 09:56:26;;;;;;;0.20;0.20;;;;;;;;;;1801335;79;26343;-45
2022/02/17 09:58:55;;;;;;;0.20;0.20;;;;;;;;;;1804138;78;26712;-42
2022/02/17 10:01:27;;;;;;;0.10;0.10;;;;;;;;;;1805867;79;26329;-45
2022/02/17 10:03:53;;;;;;;0.10;0.10;;;;;;;;;;1804307;79;26711;-46
2022/02/17 10:06:21;;;;;;;0.30;0.30;;;;;;;;;;1795841;78;26789;-44
2022/02/17 10:08:51;;;;;;;0.20;0.20;;;;;;;;;;1796692;79;26246;-44
2022/02/17 10:11:19;;;;;;;0.37;0.30;;;;;;;;;;1801735;79;26361;-47
2022/02/17 10:13:47;;;;;;;0.28;0.28;;;;;;;;;;1800652;79;26296;-45
2022/02/17 10:16:15;;;;;;;0.10;0.10;;;;;;;;;;1803388;79;26295;-45
2022/02/17 10:18:42;;;;;;;0.10;0.10;;;;;;;;;;1805156;79;26432;-45
2022/02/17 10:21:13;;;;;;;0.10;0.10;;;;;;;;;;1804762;79;26372;-43
2022/02/17 10:23:43;;;;;;;0.47;0.20;;;;;;;;;;1805379;79;26235;-44
2022/02/17 10:26:12;;;;;;;0.17;0.17;;;;;;;;;;1805175;79;26762;-43
2022/02/17 10:28:41;;;;;;;1.87;0.20;;;;;;;;;;1806136;79;26896;-45
2022/02/17 10:31:10;;;;;;;0.20;0.20;;;;;;;;;;1805831;79;26340;-44
2022/02/17 10:33:38;;;;;;;1.80;0.30;;;;;;;;;;1804978;78;26283;-44
2022/02/17 10:36:06;;;;;;;0.10;0.10;;;;;;;;;;1800626;78;26400;-44
2022/02/17 10:38:33;;;;;;;0.30;0.30;;;;;;;;;;1799984;79;26260;-45
2022/02/17 10:41:00;;;;;;;1.25;0.20;;;;;;;;;;1797776;79;28916;-47
2022/02/17 10:43:29;;;;;;;2.10;0.13;;;;;;;;;;1804700;79;26279;-46
2022/02/17 10:45:58;;;;;;;0.90;0.28;;;;;;;;;;1805148;79;26314;-47
2022/02/17 10:48:30;;;;;;;0.15;0.15;;;;;;;;;;1803982;78;26276;-48
2022/02/17 10:51:08;;;;;;;0.20;0.20;;;;;;;;;;1804570;78;26325;-48
2022/02/17 10:53:40;;;;;;;0.10;0.10;;;;;;;;;;1805877;79;26294;-49
2022/02/17 10:56:07;;;;;;;0.30;0.20;;;;;;;;;;1804411;78;26481;-47
2022/02/17 10:58:37;;;;;;;0.35;0.33;;;;;;;;;;1803976;79;26691;-49
2022/02/17 11:01:06;;;;;;;0.68;0.15;;;;;;;;;;1802067;78;26335;-47
2022/02/17 11:03:34;;;;;;;3.37;0.30;;;;;;;;;;1801917;79;26742;-48
2022/02/17 11:06:02;;;;;;;0.20;0.20;;;;;;;;;;1801649;78;26268;-49
2022/02/17 11:08:30;;;;;;;0.20;0.20;;;;;;;;;;1795368;79;26294;-44
2022/02/17 11:10:57;;;;;;;1.10;0.20;;;;;;;;;;1805868;78;26818;-46
2022/02/17 11:13:25;;;;;;;0.30;0.20;;;;;;;;;;1801083;79;26318;-44
2022/02/17 11:15:54;;;;;;;0.30;0.30;;;;;;;;;;1803849;78;26593;-49
2022/02/17 11:18:21;;;;;;;0.20;0.20;;;;;;;;;;1800179;78;26721;-48
2022/02/17 11:20:50;;;;;;;0.20;0.20;;;;;;;;;;1805943;78;26332;-48
2022/02/17 11:23:21;;;;;;;0.30;0.23;;;;;;;;;;1803465;78;26333;-50
2022/02/17 11:25:47;;;;;;;0.28;0.17;;;;;;;;;;1807589;78;26298;-46
2022/02/17 11:28:16;;;;;;;0.28;0.28;;;;;;;;;;1805607;79;26680;-45
2022/02/17 11:30:44;;;;;;;0.20;0.20;;;;;;;;;;1799362;78;26282;-47
2022/02/17 11:33:13;;;;;;;0.35;0.20;;;;;;;;;;1798797;79;26359;-49
2022/02/17 11:35:40;;;;;;;3.83;0.15;;;;;;;;;;1807989;78;26224;-46
2022/02/17 11:38:26;;;;;;;1.00;0.10;;;;;;;;;;1805845;79;26279;-47
2022/02/17 11:41:00;;;;;;;0.10;0.10;;;;;;;;;;1802690;79;26279;-44
2022/02/17 11:43:31;;;;;;;0.20;0.20;;;;;;;;;;1804898;79;26290;-46
2022/02/17 11:45:59;;;;;;;0.20;0.20;;;;;;;;;;1805293;79;26259;-49
2022/02/17 11:48:28;;;;;;;0.20;0.20;;;;;;;;;;1804003;79;26794;-45
2022/02/17 11:50:56;;;;;;;1.85;0.30;;;;;;;;;;1802549;78;26719;-46
2022/02/17 11:53:31;;;;;;;1.00;0.30;;;;;;;;;;1801999;79;26291;-47
2022/02/17 11:56:09;;;;;;;0.10;0.10;;;;;;;;;;1804839;79;26343;-45
2022/02/17 11:58:40;;;;;;;0.20;0.20;;;;;;;;;;1804755;79;27286;-44
2022/02/17 12:01:33;;;;;;;1.27;0.33;;;;;;;;;;1797044;78;26942;-49
2022/02/17 12:04:09;;;;;;;0.20;0.20;;;;;;;;;;1795837;78;22367;-49
2022/02/17 12:06:46;;;;;;;0.15;0.15;;;;;;;;;;1803514;79;26239;-46
2022/02/17 12:09:47;;;;;;;0.20;0.20;;;;;;;;;;1804481;79;26349;-48
2022/02/17 12:12:17;;;;;;;0.15;0.15;;;;;;;;;;1801223;79;26315;-48
2022/02/17 12:14:46;;;;;;;0.30;0.20;;;;;;;;;;1803052;78;26310;-47
2022/02/17 12:17:14;;;;;;;0.20;0.20;;;;;;;;;;1800354;79;26275;-48
2022/02/17 12:19:41;;;;;;;0.13;0.13;;;;;;;;;;1804681;78;26350;-48
2022/02/17 12:22:13;;;;;;;0.20;0.20;;;;;;;;;;1787095;79;26738;-49
2022/02/17 12:24:45;;;;;;;0.37;0.37;;;;;;;;;;1797969;79;26309;-47
2022/02/17 12:27:14;;;;;;;0.30;0.30;;;;;;;;;;1797864;79;26307;-47
2022/02/17 12:29:42;;;;;;;1.30;0.20;;;;;;;;;;1805911;79;26232;-46
2022/02/17 12:32:11;;;;;;;0.30;0.30;;;;;;;;;;1799990;79;26349;-46
2022/02/17 12:34:40;;;;;;;0.20;0.20;;;;;;;;;;1785379;79;26279;-46
2022/02/17 12:37:09;;;;;;;0.20;0.20;;;;;;;;;;1803440;79;26420;-45
2022/02/17 12:39:38;;;;;;;0.45;0.20;;;;;;;;;;1808141;78;26278;-44
2022/02/17 12:42:06;;;;;;;0.45;0.20;;;;;;;;;;1791644;77;26317;-45
2022/02/17 12:44:35;;;;;;;0.45;0.20;;;;;;;;;;1768097;78;28896;-50
2022/02/17 12:47:03;;;;;;;0.15;0.15;;;;;;;;;;1807423;78;26361;-49
2022/02/17 12:49:32;;;;;;;0.33;0.33;;;;;;;;;;1806100;79;26350;-46
2022/02/17 12:52:09;;;;;;;0.20;0.20;;;;;;;;;;1811512;78;26300;-46
2022/02/17 12:54:37;;;;;;;1.65;0.30;;;;;;;;;;1804532;78;26263;-47
2022/02/17 12:57:09;;;;;;;0.20;0.20;;;;;;;;;;1794775;78;26311;-50
2022/02/17 12:59:36;;;;;;;0.15;0.15;;;;;;;;;;1780226;79;26998;-49
2022/02/17 13:02:04;;;;;;;0.35;0.35;;;;;;;;;;1822269;78;26788;-50
2022/02/17 13:04:31;;;;;;;1.20;0.30;;;;;;;;;;1825149;78;35299;-46
2022/02/17 13:07:03;;;;;;;1.10;0.30;;;;;;;;;;1804779;78;26266;-45
2022/02/17 13:09:30;;;;;;;1.37;0.28;;;;;;;;;;1772058;79;26369;-46
2022/02/17 13:11:59;;;;;;;0.20;0.20;;;;;;;;;;1797076;79;26355;-49
2022/02/17 13:14:30;;;;;;;0.30;0.30;;;;;;;;;;1805982;79;26306;-47
2022/02/17 13:16:58;;;;;;;0.57;0.30;;;;;;;;;;1804308;78;26314;-52
2022/02/17 13:19:35;;;;;;;0.20;0.20;;;;;;;;;;1806716;78;26299;-48
2022/02/17 13:21:58;;;;;;;0.20;0.20;;;;;;;;;;1827885;78;27224;-46
2022/02/17 13:24:27;;;;;;;0.10;0.10;;;;;;;;;;1821754;77;26285;-46
2022/02/17 13:26:55;;;;;;;0.30;0.30;;;;;;;;;;1829620;78;26405;-48
2022/02/17 13:29:25;;;;;;;0.40;0.40;;;;;;;;;;1829782;78;26286;-44
2022/02/17 13:31:52;;;;;;;0.10;0.10;;;;;;;;;;1828245;78;26334;-46
2022/02/17 13:34:22;;;;;;;0.20;0.20;;;;;;;;;;1828968;78;26251;-44
2022/02/17 13:36:49;;;;;;;1.85;0.28;;;;;;;;;;1827190;77;26770;-45
2022/02/17 13:39:18;;;;;;;1.75;0.30;;;;;;;;;;1829348;78;26289;-47
2022/02/17 13:41:59;;;;;;;1.37;0.33;;;;;;;;;;1829124;78;26269;-45
2022/02/17 13:44:28;;;;;;;2.65;0.30;;;;;;;;;;1828974;78;26273;-47
2022/02/17 13:46:55;;;;;;;0.40;0.40;;;;;;;;;;1828507;78;26298;-47
2022/02/17 13:49:23;;;;;;;0.45;0.20;;;;;;;;;;1828637;78;26344;-49
2022/02/17 13:51:50;;;;;;;0.23;0.20;;;;;;;;;;1830033;77;26824;-45
2022/02/17 13:54:18;;;;;;;4.25;0.40;;;;;;;;;;1820277;77;28310;-51
2022/02/17 13:56:46;;;;;;;0.47;0.47;;;;;;;;;;1825200;78;26801;-50
2022/02/17 13:59:14;;;;;;;0.40;0.40;;;;;;;;;;1829319;77;26298;-48
2022/02/17 14:01:45;;;;;;;0.20;0.20;;;;;;;;;;1833168;77;26360;-47
2022/02/17 14:04:17;;;;;;;1.02;0.20;;;;;;;;;;1824607;78;26206;-45
2022/02/17 14:06:46;;;;;;;0.20;0.20;;;;;;;;;;1816898;78;26340;-43
2022/02/17 14:09:13;;;;;;;0.40;0.40;;;;;;;;;;1827464;78;26282;-49
2022/02/17 14:11:40;;;;;;;0.57;0.40;;;;;;;;;;1829074;78;26281;-46
2022/02/17 14:14:09;;;;;;;1.98;0.30;;;;;;;;;;1828981;77;26293;-44
2022/02/17 14:16:37;;;;;;;1.25;0.28;;;;;;;;;;1829276;77;26425;-46
2022/02/17 14:19:04;;;;;;;0.20;0.20;;;;;;;;;;1828237;78;26305;-45
2022/02/17 14:21:31;;;;;;;0.20;0.20;;;;;;;;;;1818705;78;26774;-43
2022/02/17 14:23:59;;;;;;;0.30;0.30;;;;;;;;;;1808699;78;26305;-44
2022/02/17 14:26:26;;;;;;;2.30;0.30;;;;;;;;;;1816855;78;26279;-45
2022/02/17 14:28:53;;;;;;;3.15;0.20;;;;;;;;;;1814520;79;26714;-43
2022/02/17 14:31:21;;;;;;;0.20;0.20;;;;;;;;;;1814784;78;26837;-45
2022/02/17 14:33:49;;;;;;;0.30;0.30;;;;;;;;;;1805385;79;26291;-49
2022/02/17 14:36:16;;;;;;;0.30;0.30;;;;;;;;;;1812180;78;26314;-44
2022/02/17 14:38:43;;;;;;;0.40;0.40;;;;;;;;;;1814811;79;26219;-45
2022/02/17 14:41:10;;;;;;;0.82;0.13;;;;;;;;;;1812863;78;26881;-45
2022/02/17 14:43:38;;;;;;;2.08;0.30;;;;;;;;;;1804871;79;28712;-48
2022/02/17 14:46:05;;;;;;;2.25;0.40;;;;;;;;;;1814603;79;26281;-47
2022/02/17 14:48:35;;;;;;;0.30;0.30;;;;;;;;;;1813808;79;26306;-44
2022/02/17 14:51:03;;;;;;;1.27;0.30;;;;;;;;;;1814286;79;26923;-46
2022/02/17 14:53:31;;;;;;;1.57;0.30;;;;;;;;;;1810624;79;26278;-45